Data for 04/14/2005

Time Sea-Level Adjusted Pressure Absolute Pressure Temperature Relative Humidity Dew Point   
(mb) (inHg) (mb) (inHg) (C) (F) (%) (C) (F)
00:05 1006 29.71 836 24.69 8.8 47.8 57 0.7 33.3
00:10 1006 29.71 835 24.66 8.6 47.5 57 0.7 33.3
00:15 1007 29.74 836 24.69 8.6 47.4 57 0.5 32.9
00:20 1006 29.71 836 24.69 8.7 47.6 56 0.4 32.8
00:25 1006 29.71 835 24.66 8.5 47.2 58 0.8 33.4
00:30 1007 29.74 836 24.69 8 46.5 60 0.8 33.4
00:35 1007 29.74 836 24.69 7.9 46.1 60 0.5 33
00:40 1007 29.74 836 24.69 7.7 45.9 61 0.7 33.3
00:45 1006 29.71 836 24.69 7.7 45.9 60 0.5 32.9
00:50 1007 29.74 836 24.69 7.7 45.9 60 0.5 32.9
00:55 1007 29.74 836 24.69 8 46.4 59 0.4 32.8
01:00 1007 29.74 836 24.69 8.2 46.7 59 0.6 33.1
01:05 1007 29.74 836 24.69 8 46.4 59 0.6 33.1
01:10 1007 29.74 836 24.69 7.9 46.2 60 0.6 33.1
01:15 1007 29.74 836 24.69 7.7 45.9 61 0.6 33.1
01:20 1007 29.74 836 24.69 7.5 45.5 61 0.6 33.1
01:25 1008 29.77 837 24.72 7 44.5 64 0.7 33.2
01:30 1008 29.77 837 24.72 6.7 44.1 64 0.4 32.7
01:35 1008 29.77 837 24.72 6.8 44.2 64 0.5 33
01:40 1008 29.77 837 24.72 6.7 44 64 0.4 32.8
01:45 1008 29.77 837 24.72 6.7 44.1 63 0.3 32.5
01:50 1008 29.77 837 24.72 6.7 44.1 64 0.4 32.7
01:55 1008 29.77 838 24.75 6.8 44.3 63 0.3 32.5
02:00 1008 29.77 838 24.75 7 44.6 63 0.4 32.7
02:05 1009 29.8 838 24.75 7.3 45.1 60 0.2 32.3
02:10 1009 29.8 838 24.75 8.1 46.5 54 -0.7 30.7
02:15 1008 29.77 838 24.75 8.3 46.9 55 -0.3 31.5
02:20 1009 29.8 838 24.75 8.2 46.7 44 -3.4 26
02:25 1008 29.77 837 24.72 7.9 46.1 42 -4.3 24.3
02:30 1008 29.77 838 24.75 8 46.4 40 -4.7 23.6
02:35 1008 29.77 838 24.75 8.4 47.1 32 -7.2 19
02:40 1008 29.77 838 24.75 9.1 48.3 32 -6.6 20.1
02:45 1009 29.8 838 24.75 8.7 47.6 34 -6.1 21
02:50 1009 29.8 838 24.75 8.3 46.9 35 -6.3 20.7
02:55 1009 29.8 838 24.75 8 46.4 35 -6.4 20.5
03:00 1009 29.8 838 24.75 8 46.4 35 -6.4 20.4
03:05 1009 29.8 838 24.75 7.8 46.1 36 -6.4 20.5
03:10 1009 29.8 839 24.78 6.8 44.2 64 0.5 33
03:15 1009 29.8 839 24.78 5.7 42.3 68 0.3 32.6
03:20 1009 29.8 839 24.78 5.5 41.8 69 0.2 32.4
03:25 1009 29.8 839 24.78 5.4 41.6 67 -0.2 31.6
03:30 1010 29.83 839 24.78 5.5 41.9 66 -0.4 31.3
03:35 1010 29.83 839 24.78 5.8 42.4 63 -0.8 30.6
03:40 1010 29.83 839 24.78 5.7 42.2 62 -1 30.1
03:45 1010 29.83 839 24.78 5.7 42.2 60 -1.5 29.2
03:50 1010 29.83 839 24.78 5.8 42.5 61 -1 30.2
03:55 1010 29.83 839 24.78 5.7 42.3 59 -1.7 28.9
04:00 1010 29.83 839 24.78 5.8 42.4 51 -3.6 25.4
04:05 1010 29.83 839 24.78 5.9 42.6 45 -5.1 22.9
04:10 1010 29.83 839 24.78 5.9 42.6 47 -4.6 23.8
04:15 1010 29.83 839 24.78 5.6 42.1 47 -4.8 23.4
04:20 1010 29.83 839 24.78 5.4 41.7 49 -4.5 23.9
04:25 1010 29.83 839 24.78 5.1 41.1 48 -4.9 23.1
04:30 1010 29.83 839 24.78 4.9 40.9 48 -5.2 22.6
04:35 1010 29.83 839 24.78 5 40.9 48 -5.2 22.7
04:40 1010 29.83 839 24.78 5.1 41.1 47 -5.3 22.5
04:45 1009 29.8 839 24.78 5.4 41.7 41 -6.8 19.8
04:50 1010 29.83 839 24.78 5.8 42.5 41 -6.5 20.2
04:55 1010 29.83 839 24.78 5.9 42.6 41 -6.2 20.8
05:00 1010 29.83 839 24.78 5.6 42 45 -5.4 22.3
05:05 1010 29.83 839 24.78 5.1 41.2 45 -5.9 21.5
05:10 1010 29.83 839 24.78 5 40.9 42 -7 19.4
05:15 1010 29.83 839 24.78 4.9 40.8 41 -7.2 19.1
05:20 1010 29.83 839 24.78 4.8 40.6 42 -6.9 19.5
05:25 1010 29.83 839 24.78 4.7 40.5 42 -7.1 19.2
05:30 1011 29.85 840 24.81 4.7 40.4 43 -6.8 19.8
05:35 1011 29.85 840 24.81 4.6 40.3 43 -6.9 19.5
05:40 1011 29.85 840 24.81 4.4 40 43 -7 19.5
05:45 1011 29.85 840 24.81 3.8 38.8 52 -5.2 22.7
05:50 1011 29.85 840 24.81 2.7 36.9 54 -5.6 21.9
05:55 1011 29.85 840 24.81 2.5 36.4 52 -6.4 20.5
06:00 1011 29.85 840 24.81 2.5 36.6 47 -7.6 18.4
06:05 1011 29.85 840 24.81 2.7 36.8 46 -7.7 18.1
06:10 1011 29.85 840 24.81 2.7 36.8 48 -7.1 19.1
06:15 1011 29.85 840 24.81 2.4 36.4 47 -7.7 18.2
06:20 1011 29.85 840 24.81 2.5 36.5 44 -8.5 16.7
06:25 1011 29.85 840 24.81 2.5 36.5 42 -9.2 15.4
06:30 1011 29.85 840 24.81 2.8 37 40 -9.7 14.6
06:35 1011 29.85 841 24.83 2.9 37.2 38 -10 13.9
06:40 1012 29.88 841 24.83 2.9 37.2 40 -9.6 14.8
06:45 1012 29.88 841 24.83 2.9 37.2 35 -11.3 11.7
06:50 1012 29.88 841 24.83 3.1 37.6 33 -11.5 11.2
06:55 1012 29.88 841 24.83 3.1 37.6 33 -11.6 11.2
07:00 1012 29.88 842 24.86 3.2 37.7 35 -10.9 12.4
07:05 1013 29.91 842 24.86 3.1 37.7 39 -9.5 14.9
07:10 1013 29.91 842 24.86 3.1 37.6 45 -7.8 18
07:15 1013 29.91 842 24.86 3 37.5 48 -6.9 19.5
07:20 1013 29.91 842 24.86 2.8 37 47 -7.5 18.5
07:25 1013 29.91 843 24.89 2.4 36.3 55 -5.7 21.7
07:30 1014 29.94 843 24.89 1.4 34.5 67 -4.1 24.7
07:35 1014 29.94 843 24.89 0.7 33.2 75 -3.3 26.1
07:40 1014 29.94 843 24.89 0.1 32.2 81 -2.8 26.9
07:45 1014 29.94 843 24.89 0 32.1 81 -2.8 26.9
07:50 1014 29.94 843 24.89 -0 32 80 -3.1 26.4
07:55 1014 29.94 843 24.89 0.2 32.3 73 -4.1 24.7
08:00 1014 29.94 843 24.89 0.6 33.1 72 -3.9 25.1
08:05 1014 29.94 843 24.89 0.5 32.9 77 -3 26.5
08:10 1014 29.94 844 24.92 0 32 83 -2.5 27.5
08:15 1014 29.94 844 24.92 -0.1 31.8 80 -3.1 26.4
08:20 1015 29.97 844 24.92 0.2 32.3 79 -3.1 26.5
08:25 1015 29.97 844 24.92 0.2 32.4 81 -2.7 27.2
08:30 1015 29.97 844 24.92 -0 32 86 -2.1 28.3
08:35 1015 29.97 844 24.92 -0.3 31.5 85 -2.5 27.6
08:40 1015 29.97 844 24.92 -0.3 31.4 86 -2.4 27.7
08:45 1015 29.97 844 24.92 -0.3 31.5 86 -2.4 27.7
08:50 1015 29.97 845 24.95 -0.3 31.5 88 -2.1 28.3
08:55 1015 29.97 845 24.95 -0.4 31.3 88 -2.1 28.3
09:00 1016 30 845 24.95 -0.4 31.2 87 -2.3 27.8
09:05 1016 30 845 24.95 -0.3 31.5 87 -2.3 27.9
09:10 1016 30 845 24.95 -0.2 31.6 83 -2.8 27
09:15 1016 30 845 24.95 -0.1 31.9 82 -2.8 26.9
09:20 1016 30 845 24.95 -0.1 31.8 83 -2.7 27.1
09:25 1016 30 845 24.95 -0.2 31.6 85 -2.4 27.7
09:30 1016 30 845 24.95 -0.4 31.3 88 -2.2 28
09:35 1016 30 845 24.95 -0.4 31.3 84 -2.8 26.9
09:40 1016 30 845 24.95 -0.2 31.6 84 -2.7 27.2
09:45 1016 30 845 24.95 -0.4 31.4 85 -2.6 27.4
09:50 1016 30 846 24.98 -0.1 31.8 82 -2.8 26.9
09:55 1016 30 846 24.98 0 32.1 78 -3.3 26
10:00 1016 30 846 24.98 0.5 32.9 73 -3.8 25.1
10:05 1016 30 846 24.98 0.7 33.2 72 -3.8 25.2
10:10 1017 30.03 846 24.98 0.6 33 73 -3.8 25.1
10:15 1017 30.03 846 24.98 0.6 33 73 -3.7 25.3
10:20 1017 30.03 846 24.98 0.8 33.4 69 -4.3 24.3
10:25 1017 30.03 846 24.98 0.7 33.2 69 -4.4 24.2
10:30 1017 30.03 846 24.98 0.8 33.5 67 -4.5 23.8
10:35 1017 30.03 846 24.98 0.9 33.6 67 -4.5 23.9
10:40 1017 30.03 846 24.98 0.9 33.7 67 -4.5 24
10:45 1017 30.03 846 24.98 0.8 33.5 73 -3.5 25.6
10:50 1017 30.03 847 25.01 0.9 33.5 70 -4.1 24.6
10:55 1017 30.03 847 25.01 0.9 33.6 67 -4.5 23.9
11:00 1017 30.03 847 25.01 0.9 33.6 68 -4.3 24.3
11:05 1018 30.06 847 25.01 0.9 33.5 65 -4.9 23.1
11:10 1018 30.06 847 25.01 1.2 34.1 63 -5 23
11:15 1018 30.06 847 25.01 1.4 34.5 61 -5.4 22.3
11:20 1018 30.06 847 25.01 1.7 35 58 -5.8 21.6
11:25 1018 30.06 847 25.01 1.7 35.1 57 -5.9 21.4
11:30 1018 30.06 847 25.01 2 35.6 54 -6.4 20.4
11:35 1018 30.06 847 25.01 2.2 36 53 -6.4 20.5
11:40 1018 30.06 847 25.01 2.3 36.2 53 -6.2 20.8
11:45 1018 30.06 847 25.01 2.5 36.6 51 -6.7 20
11:50 1018 30.06 847 25.01 2.6 36.6 48 -7.4 18.8
11:55 1018 30.06 847 25.01 2.5 36.6 47 -7.8 18
12:00 1018 30.06 847 25.01 2.5 36.4 46 -8.1 17.4
12:05 1018 30.06 847 25.01 2.6 36.6 43 -8.7 16.3
12:10 1018 30.06 848 25.04 2.6 36.6 43 -8.7 16.3
12:15 1018 30.06 848 25.04 2.7 36.8 42 -9 15.9
12:20 1019 30.09 848 25.04 2.7 36.8 41 -9.3 15.2
12:25 1019 30.09 848 25.04 2.9 37.2 40 -9.5 14.9
12:30 1019 30.09 848 25.04 3 37.3 40 -9.5 14.9
12:35 1019 30.09 848 25.04 3.1 37.6 40 -9.4 15.2
12:40 1019 30.09 848 25.04 3.1 37.5 40 -9.3 15.3
12:45 1019 30.09 848 25.04 3.3 37.9 40 -9.1 15.6
12:50 1019 30.09 848 25.04 3.5 38.2 39 -9.2 15.4
12:55 1019 30.09 848 25.04 3 37.5 40 -9.3 15.3
13:00 1019 30.09 848 25.04 3.1 37.6 39 -9.4 15
13:05 1019 30.09 848 25.04 3.2 37.7 41 -8.7 16.3
13:10 1019 30.09 848 25.04 3.3 38 42 -8.3 17.1
13:15 1019 30.09 848 25.04 3.3 38 41 -8.7 16.3
13:20 1019 30.09 848 25.04 3.1 37.6 43 -8.3 17
13:25 1019 30.09 848 25.04 3 37.4 42 -8.7 16.4
13:30 1019 30.09 848 25.04 3 37.4 42 -8.7 16.4
13:35 1019 30.09 848 25.04 2.8 37.1 43 -8.5 16.7
13:40 1019 30.09 848 25.04 3.1 37.7 40 -9.1 15.7
13:45 1019 30.09 848 25.04 3.2 37.7 42 -8.5 16.8
13:50 1019 30.09 849 25.07 3 37.3 41 -8.9 16
13:55 1019 30.09 849 25.07 3.1 37.7 41 -8.8 16.2
14:00 1019 30.09 849 25.07 3.1 37.6 42 -8.5 16.7
14:05 1020 30.12 849 25.07 3.1 37.6 43 -8.3 17.1
14:10 1020 30.12 849 25.07 3.4 38.1 41 -8.6 16.5
14:15 1020 30.12 849 25.07 3.5 38.3 37 -9.7 14.5
14:20 1020 30.12 849 25.07 3.5 38.3 37 -9.7 14.5
14:25 1020 30.12 849 25.07 3.7 38.7 40 -8.7 16.4
14:30 1020 30.12 849 25.07 4.2 39.6 39 -8.4 16.9
14:35 1020 30.12 849 25.07 3.8 38.9 38 -9.1 15.6
14:40 1020 30.12 849 25.07 3.9 39 32 -11.3 11.7
14:45 1020 30.12 849 25.07 4.1 39.3 32 -11.3 11.7
14:50 1020 30.12 849 25.07 4.1 39.4 34 -10.5 13.1
14:55 1020 30.12 849 25.07 4.6 40.2 31 -11.1 11.9
15:00 1020 30.12 849 25.07 5 40.9 31 -10.8 12.5
15:05 1020 30.12 849 25.07 4.8 40.6 33 -10.2 13.7
15:10 1020 30.12 849 25.07 4.8 40.7 33 -10.2 13.7
15:15 1020 30.12 849 25.07 4.9 40.8 30 -11.2 11.8
15:20 1020 30.12 849 25.07 5 40.9 30 -11 12.1
15:25 1020 30.12 849 25.07 5.3 41.6 30 -10.9 12.5
15:30 1020 30.12 849 25.07 6 42.8 29 -10.7 12.7
15:35 1020 30.12 849 25.07 6.1 43 30 -10.3 13.5
15:40 1020 30.12 849 25.07 5.9 42.6 30 -10.4 13.3
15:45 1020 30.12 849 25.07 5.4 41.8 30 -10.8 12.6
15:50 1020 30.12 849 25.07 5.4 41.7 30 -10.8 12.6
15:55 1020 30.12 849 25.07 5.9 42.6 30 -10.5 13.2
16:00 1020 30.12 849 25.07 6.6 43.9 28 -10.7 12.7
16:05 1020 30.12 849 25.07 6.8 44.2 28 -10.6 12.9
16:10 1020 30.12 849 25.07 6 42.8 30 -10.2 13.6
16:15 1020 30.12 849 25.07 5.3 41.6 38 -7.9 17.9
16:20 1020 30.12 849 25.07 4.4 40 43 -7.1 19.3
16:25 1020 30.12 849 25.07 3.7 38.6 49 -6 21.2
16:30 1020 30.12 849 25.07 3.5 38.2 49 -6.3 20.6
16:35 1020 30.12 849 25.07 3.3 38 52 -5.5 22.1
16:40 1020 30.12 849 25.07 3.1 37.6 49 -6.6 20.1
16:45 1020 30.12 849 25.07 3.5 38.3 45 -7.3 18.9
16:50 1020 30.12 849 25.07 4.3 39.8 42 -7.6 18.3
16:55 1020 30.12 849 25.07 5 41 43 -6.7 20
17:00 1020 30.12 849 25.07 4.8 40.7 42 -6.9 19.5
17:05 1020 30.12 849 25.07 4.7 40.4 42 -7.2 19
17:10 1020 30.12 849 25.07 4.7 40.5 38 -8.3 17
17:15 1020 30.12 849 25.07 4.8 40.7 38 -8.3 17.1
17:20 1020 30.12 849 25.07 4.4 40 38 -8.7 16.4
17:25 1020 30.12 849 25.07 4.5 40.1 39 -8.3 17.1
17:30 1020 30.12 850 25.1 4.2 39.6 31 -11.3 11.7
17:35 1020 30.12 850 25.1 3.6 38.4 35 -10.4 13.2
17:40 1021 30.15 850 25.1 3.1 37.6 35 -10.9 12.4
17:45 1021 30.15 850 25.1 2.8 37 35 -11.1 12
17:50 1021 30.15 850 25.1 2.6 36.7 49 -7.1 19.2
17:55 1021 30.15 850 25.1 2.3 36.2 50 -7 19.4
18:00 1020 30.12 850 25.1 2.8 37.1 43 -8.5 16.7
18:05 1020 30.12 850 25.1 3.1 37.6 44 -8 17.6
18:10 1020 30.12 850 25.1 3.1 37.6 45 -7.7 18.1
18:15 1020 30.12 850 25.1 3.5 38.2 41 -8.4 16.8
18:20 1020 30.12 850 25.1 3.8 38.9 40 -8.6 16.6
18:25 1020 30.12 850 25.1 3.8 38.8 38 -9.4 15
18:30 1020 30.12 850 25.1 4.1 39.4 37 -9.3 15.2
18:35 1020 30.12 850 25.1 3.8 38.8 39 -9 15.7
18:40 1020 30.12 849 25.07 4.2 39.5 29 -12.4 9.6
18:45 1020 30.12 850 25.1 4.2 39.6 29 -12.5 9.5
18:50 1020 30.12 850 25.1 4.2 39.6 29 -12.1 10.2
18:55 1020 30.12 850 25.1 4.2 39.6 30 -11.9 10.7
19:00 1020 30.12 850 25.1 4.1 39.4 31 -11.8 10.8
19:05 1020 30.12 850 25.1 4.2 39.5 31 -11.7 11
19:10 1021 30.15 850 25.1 4.3 39.7 31 -11.6 11.2
19:15 1021 30.15 850 25.1 4.1 39.4 32 -11.3 11.7
19:20 1021 30.15 850 25.1 4 39.2 32 -11.2 11.9
19:25 1021 30.15 850 25.1 3.6 38.5 40 -8.7 16.3
19:30 1021 30.15 850 25.1 3 37.4 41 -8.9 16
19:35 1021 30.15 850 25.1 2.9 37.3 40 -9.4 15.1
19:40 1021 30.15 850 25.1 2.7 36.9 46 -7.8 18
19:45 1021 30.15 850 25.1 2.5 36.5 44 -8.4 16.8
19:50 1021 30.15 850 25.1 2.2 36 45 -8.4 16.9
19:55 1021 30.15 850 25.1 2 35.6 43 -9.5 15
20:00 1021 30.15 850 25.1 2 35.7 47 -8.1 17.4
20:05 1021 30.15 850 25.1 1.8 35.3 43 -9.4 15.2
20:10 1021 30.15 850 25.1 1.9 35.4 44 -9.2 15.5
20:15 1021 30.15 850 25.1 1.8 35.3 44 -9.2 15.4
20:20 1021 30.15 850 25.1 1.6 34.9 48 -8.3 17.1
20:25 1021 30.15 850 25.1 1.1 34 51 -8 17.5
20:30 1021 30.15 850 25.1 1.1 33.9 51 -7.9 17.9
20:35 1021 30.15 851 25.13 0.7 33.2 53 -7.9 17.9
20:40 1021 30.15 851 25.13 0.5 33 53 -7.9 17.7
20:45 1021 30.15 851 25.13 0.4 32.7 54 -7.9 17.7
20:50 1021 30.15 851 25.13 0.2 32.4 54 -8.1 17.4
20:55 1021 30.15 851 25.13 0.2 32.3 53 -8.2 17.2
21:00 1022 30.18 851 25.13 0.2 32.3 53 -8.3 17.1
21:05 1022 30.18 851 25.13 0.5 32.9 52 -8.2 17.2
21:10 1022 30.18 851 25.13 0.6 33.1 54 -7.6 18.2
21:15 1022 30.18 851 25.13 0.3 32.6 53 -8.1 17.5
21:20 1022 30.18 851 25.13 0.2 32.4 54 -8.1 17.4
21:25 1022 30.18 851 25.13 0.1 32.2 53 -8.3 17.1
21:30 1022 30.18 851 25.13 0.3 32.5 50 -9 15.7
21:35 1022 30.18 851 25.13 1 33.8 49 -8.7 16.4
21:40 1022 30.18 851 25.13 1 33.7 48 -8.8 16.2
21:45 1022 30.18 851 25.13 1.2 34.2 47 -9 15.8
21:50 1022 30.18 851 25.13 1.6 34.9 45 -9 15.8
21:55 1022 30.18 851 25.13 1.8 35.2 48 -8.1 17.4
22:00 1022 30.18 851 25.13 1.5 34.7 50 -7.7 18.1
22:05 1022 30.18 851 25.13 1.1 33.9 50 -8.2 17.3
22:10 1022 30.18 851 25.13 0.8 33.4 52 -8 17.5
22:15 1022 30.18 851 25.13 0.9 33.7 48 -8.8 16.2
22:20 1022 30.18 851 25.13 1.1 34 49 -8.4 16.9
22:25 1022 30.18 851 25.13 1 33.8 49 -8.5 16.7
22:30 1022 30.18 851 25.13 0.8 33.4 51 -8.3 17.1
22:35 1022 30.18 851 25.13 0.7 33.2 49 -8.9 15.9
22:40 1022 30.18 851 25.13 0.7 33.3 49 -8.8 16.1
22:45 1022 30.18 851 25.13 0.6 33.1 50 -8.7 16.4
22:50 1022 30.18 851 25.13 0.4 32.6 50 -8.9 16.1
22:55 1022 30.18 851 25.13 0.1 32.2 51 -8.7 16.3
23:00 1022 30.18 851 25.13 -0.2 31.7 52 -8.8 16.2
23:05 1022 30.18 851 25.13 -0.2 31.6 52 -8.8 16.1
23:10 1022 30.18 851 25.13 -0.4 31.3 53 -8.8 16.2
23:15 1022 30.18 851 25.13 -0.5 31.1 53 -9 15.7
23:20 1022 30.18 851 25.13 -0.6 30.9 55 -8.6 16.5
23:25 1022 30.18 851 25.13 -0.9 30.4 53 -9.3 15.3
23:30 1022 30.18 851 25.13 -0.9 30.4 53 -9.2 15.4
23:35 1022 30.18 851 25.13 -1 30.3 54 -9.1 15.6
23:40 1022 30.18 851 25.13 -0.6 31 52 -9.2 15.5
23:45 1022 30.18 851 25.13 -0.2 31.7 51 -9.1 15.6
23:50 1022 30.18 851 25.13 0 32 49 -9.4 15.2
23:55 1022 30.18 852 25.16 0.2 32.4 48 -9.6 14.7
24:00 1022 30.18 852 25.16 0.4 32.8 47 -9.6 14.7